Effective Sunday, March 17, 2024, the National Weather Service National Data Buoy Center will discontinue its Dial-A-Buoy Interactive Voice Response system. For more information, see Service Change Notice 24-06 (PDF).

Station GEXA2 - George Island, Alaska Image indicating link to RSS feed of recent meteorological observations for station GEXA2


Conditions at GEXA2 as of
(11:33 pm AKST on 02/21/2024)
0833 GMT on 02/22/2024:
     

Click on the graph icon in the table below to see a time series plot of the last five days of that observation.

5-day plot - Wind Direction Wind Direction (WDIR):SSE ( 160 deg true )
5-day plot - Wind Speed Wind Speed (WSPD): 10 kts
5-day plot - Wind Gust Wind Gust (GST): 16 kts
5-day plot - Air Temperature Air Temperature (ATMP): 41.9 °F
5-day plot - Dew Point Dew Point (DEWP): 37.0 °F
5-day plot - Wind Chill Wind Chill (CHILL): 35.4 °F
5-day plot - Wind Speed at 10 Meters Wind Speed at 10 meters (WSPD10M): 12 kts
5-day plot - Wind Speed at 20 Meters Wind Speed at 20 meters (WSPD20M): 12 kts
5-day plot -  Wind Speed, Wind Gust and Atmospheric Pressure Combined plot of Wind Speed, Gust, and Air Pressure
Previous observations
TIME
(AKST)
5-day plot - Wind Direction
WDIR
 
5-day plot - Wind Speed
WSPD
kts
5-day plot - Wind Gust
GST
kts
5-day plot - Wave Height
WVHT
ft
5-day plot - Dominant Wave Period
DPD
sec
5-day plot - Average Wave Period
APD
sec
5-day plot - Mean Wave Direction
MWD
 
5-day plot - Atmospheric Pressure
PRES
in
5-day plot - Pressure Tendency
PTDY
in
5-day plot - Air Temperature
ATMP
°F
5-day plot - Water Temperature
WTMP
°F
5-day plot - Dew Point
DEWP
°F
5-day plot - Salinity
SAL
psu
5-day plot - Visibility
VIS
nmi
5-day plot - Tide (above MLLW)
TIDE
ft
2024-02-21 11:23 pm S 8 12------ 41.9- 37.0---
2024-02-21 11:13 pmSSE 9 13------ 41.9- 37.0---
2024-02-21 11:03 pm S 9 13------ 41.9- 37.2---
2024-02-21 10:53 pm S 9 15------ 41.9- 37.0---
2024-02-21 10:43 pm S 7 12------ 41.9- 37.2---
2024-02-21 10:33 pmSSE 7 12------ 41.9- 37.2---
2024-02-21 10:23 pm S 5 9------ 41.9- 37.0---
2024-02-21 10:13 pm S 9 16------ 41.9- 37.0---
2024-02-21 10:03 pm S 8 13------ 41.7- 37.2---
2024-02-21 09:53 pmSSE 9 13------ 41.9- 37.2---
2024-02-21 09:43 pm S 9 15------ 42.1- 37.2---
2024-02-21 09:33 pm S 7 12------ 42.1- 37.2---
2024-02-21 09:23 pm S 9 15------ 42.1- 37.2---
2024-02-21 09:13 pm S 7 14------ 41.7- 37.4---
2024-02-21 09:03 pm S 6 11------ 41.7- 37.6---
2024-02-21 08:53 pm S 6 12------ 41.7- 37.6---
2024-02-21 08:43 pm S 7 11------ 41.9- 37.6---
2024-02-21 08:33 pm S 5 11------ 41.7- 37.6---
2024-02-21 08:23 pm S 8 13------ 41.9- 37.6---
2024-02-21 08:13 pm S 9 15------ 41.9- 37.6---
2024-02-21 08:03 pm S 8 11------ 41.5- 37.6---
2024-02-21 07:53 pmSSE 9 13------ 41.7- 37.6---
2024-02-21 07:43 pm S 8 13------ 41.9- 37.6---
2024-02-21 07:33 pm S 8 14------ 41.5- 37.8---
2024-02-21 07:23 pmSSW 6 11------ 41.4- 37.8---
2024-02-21 07:13 pmSSW 6 13------ 41.4- 37.8---
2024-02-21 07:03 pm SW 6 13------ 41.4- 37.8---
2024-02-21 06:53 pm S 7 12------ 41.4- 37.8---
2024-02-21 06:43 pm S 7 11------ 41.0- 37.6---
2024-02-21 06:33 pmSSE 7 10------ 41.0- 37.6---
2024-02-21 06:23 pm S 6 11------ 41.5- 37.6---
2024-02-21 06:13 pmSSW 6 13------ 41.4- 37.6---
2024-02-21 06:03 pm S 6 11------ 41.0- 37.8---
2024-02-21 05:53 pm S 8 12------ 41.0- 37.8---
2024-02-21 05:43 pm S 7 13------ 40.8- 37.6---
2024-02-21 05:33 pmSSW 6 13------ 40.8- 37.8---
2024-02-21 05:23 pm SW 4 9------ 40.8- 37.8---
2024-02-21 05:13 pm W 2 4------ 40.8- 37.8---
2024-02-21 05:03 pm W 3 4------ 40.6- 37.6---
2024-02-21 04:53 pm W 2 4------ 40.6- 37.6---
2024-02-21 04:43 pm W 2 3------ 40.8- 37.6---
2024-02-21 04:33 pm SW 1 2------ 40.6- 37.4---
2024-02-21 04:23 pm- 0 2------ 40.5- 37.4---
2024-02-21 04:13 pm- 0 2------ 40.3- 37.2---
2024-02-21 04:03 pmENE 2 4------ 40.1- 37.0---
2024-02-21 03:53 pm NE 2 4------ 40.1- 37.0---
2024-02-21 03:43 pmNNE 3 4------ 40.1- 37.0---
2024-02-21 03:33 pm NE 2 4------ 40.1- 37.0---
2024-02-21 03:23 pm NE 3 4------ 40.1- 37.0---
2024-02-21 03:13 pm NE 3 5------ 39.9- 36.9---
2024-02-21 02:53 pm NE 2 3------ 39.9- 36.9---
2024-02-21 02:43 pmENE 3 4------ 39.7- 36.7---
2024-02-21 02:33 pmENE 2 4------ 39.6- 36.5---
2024-02-21 02:23 pmNNE 3 4------ 39.7- 36.7---
2024-02-21 02:13 pmNNW 4 5------ 39.7- 36.7---
2024-02-21 02:03 pmNNW 5 8------ 39.9- 36.5---
2024-02-21 01:53 pm N 6 8------ 39.9- 36.3---
2024-02-21 01:43 pmNNE 4 7------ 40.3- 36.7---
2024-02-21 01:33 pm NE 5 8------ 40.3- 36.7---
2024-02-21 01:23 pm NE 5 8------ 40.3- 36.7---
2024-02-21 01:13 pmNNE 5 6------ 40.3- 36.5---
2024-02-21 01:03 pm NE 5 7------ 40.3- 36.5---
2024-02-21 12:53 pm NE 5 8------ 40.3- 36.5---
2024-02-21 12:43 pm NE 6 9------ 40.3- 36.5---
2024-02-21 12:33 pm NE 4 6------ 40.5- 36.7---
2024-02-21 12:23 pm NE 5 7------ 40.3- 36.5---
2024-02-21 12:13 pm NE 4 6------ 40.5- 36.5---
2024-02-21 12:03 pm NE 5 6------ 40.5- 36.3---
2024-02-21 11:53 amNNE 4 6------ 40.3- 35.8---
2024-02-21 11:43 amNNE 4 6------ 40.5- 36.3---
2024-02-21 11:33 am NE 3 4------ 40.5- 36.3---
2024-02-21 11:23 am NE 4 5------ 39.9- 36.1---
2024-02-21 11:13 am NE 5 6------ 39.7- 36.0---
2024-02-21 11:03 am NE 5 7------ 39.6- 35.8---
2024-02-21 10:53 amNNE 6 8------ 39.6- 35.8---
2024-02-21 10:43 am NE 4 5------ 39.7- 36.0---
2024-02-21 10:33 am NE 4 5------ 39.6- 35.8---
2024-02-21 10:23 am NE 5 6------ 39.4- 35.6---
2024-02-21 10:13 amENE 5 6------ 39.2- 35.4---
2024-02-21 10:03 am NE 5 6------ 39.0- 35.4---
2024-02-21 09:53 amNNE 5 7------ 39.0- 35.4---
2024-02-21 09:43 am NE 5 7------ 38.8- 35.2---
2024-02-21 09:33 am NE 5 7------ 38.8- 35.2---
2024-02-21 09:23 amNNE 5 8------ 38.8- 35.1---
2024-02-21 09:13 am NE 5 7------ 38.8- 35.1---
2024-02-21 09:03 am NE 5 8------ 38.8- 35.1---
2024-02-21 08:53 am NE 5 8------ 39.0- 35.1---
2024-02-21 08:43 amENE 4 6------ 38.8- 35.1---
2024-02-21 08:33 amENE 4 6------ 38.8- 34.9---
2024-02-21 08:23 am NE 5 7------ 38.8- 34.7---
2024-02-21 08:13 amENE 5 8------ 38.5- 34.7---
2024-02-21 08:03 amENE 6 8------ 38.3- 34.7---
2024-02-21 07:53 amENE 5 7------ 38.5- 34.9---
2024-02-21 07:43 amENE 5 8------ 38.3- 34.7---
2024-02-21 07:33 amENE 7 9------ 37.9- 34.5---
2024-02-21 07:13 amENE 6 8------ 38.1- 34.5---
2024-02-21 07:03 amENE 5 7------ 38.1- 34.5---
2024-02-21 06:53 am NE 4 7------ 38.7- 34.9---
2024-02-21 06:43 am E 2 5------ 38.8- 35.2---
2024-02-21 06:33 amESE 4 6------ 38.5- 34.9---
2024-02-21 06:23 amENE 6 10------ 37.8- 34.3---
2024-02-21 06:13 amENE 8 10------ 37.6- 34.3---
2024-02-21 06:03 amENE 9 11------ 37.4- 34.2---
2024-02-21 05:53 amENE 9 12------ 37.4- 34.2---
2024-02-21 05:43 amENE 8 10------ 37.4- 34.2---
2024-02-21 05:33 am NE 8 10------ 37.6- 34.3---
2024-02-21 05:23 am NE 7 10------ 37.6- 34.3---
2024-02-21 05:13 am NE 9 13------ 37.4- 34.2---
2024-02-21 05:03 am NE 9 13------ 37.4- 34.2---
2024-02-21 04:53 am NE 8 12------ 37.2- 34.0---
2024-02-21 04:43 amENE 11 13------ 37.2- 34.0---
2024-02-21 04:33 am NE 8 10------ 37.4- 34.2---
2024-02-21 04:23 am NE 6 8------ 37.4- 34.3---
2024-02-21 04:13 am NE 6 8------ 37.4- 34.2---
2024-02-21 04:03 am NE 7 9------ 37.4- 34.2---
2024-02-21 03:53 am NE 7 9------ 37.4- 34.2---
2024-02-21 03:43 am NE 7 9------ 37.4- 34.2---
2024-02-21 03:33 am NE 6 8------ 37.6- 34.3---
2024-02-21 03:23 am NE 7 11------ 37.4- 34.5---
2024-02-21 03:03 am NE 8 10------ 37.0- 34.0---
2024-02-21 02:53 am NE 9 12------ 37.4- 34.2---
2024-02-21 02:43 am NE 5 9------ 37.8- 34.5---
2024-02-21 02:33 amNNE 4 8------ 37.9- 34.3---
2024-02-21 02:23 amNNE 2 5------ 38.3- 35.1---
2024-02-21 02:13 amENE 2 4------ 38.3- 35.1---
2024-02-21 02:03 amENE 3 5------ 37.9- 34.7---
2024-02-21 01:53 amENE 3 6------ 37.9- 34.7---
2024-02-21 01:43 am NE 3 5------ 37.8- 34.5---
2024-02-21 01:33 am NE 3 5------ 37.8- 34.9---
2024-02-21 01:23 am NE 3 4------ 37.6- 34.7---
2024-02-21 01:13 am NE 3 5------ 37.8- 34.9---
2024-02-21 01:03 am NE 2 5------ 37.2- 34.3---
2024-02-21 12:53 am NE 2 4------ 37.0- 34.2---
2024-02-21 12:43 am NE 4 6------ 37.0- 34.3---
2024-02-21 12:33 am NE 5 7------ 36.7- 34.0---
2024-02-21 12:23 am NE 5 7------ 36.7- 34.0---
2024-02-21 12:13 am NE 4 6------ 36.7- 34.0---
2024-02-21 12:03 am NE 4 6------ 36.7- 34.0---
2024-02-20 11:53 pmENE 3 5------ 36.9- 34.2---
2024-02-20 11:43 pm NE 4 6------ 36.7- 34.0---
2024-02-20 11:33 pm NE 4 6------ 36.9- 34.3---
2024-02-20 11:23 pm NE 4 5------ 37.0- 34.5---
2024-02-20 11:13 pm NE 4 6------ 37.4- 34.7---
2024-02-20 11:03 pm NE 3 5------ 37.2- 34.5---
2024-02-20 10:53 pm NE 4 6------ 37.2- 34.5---